Terminal Aerodrome Forecast
Issued by NWS Denver/Boulder, CO

Home | Current Version | Previous Version | Text Only | Print | Product List | Glossary On
Versions: 1 2 3 4 5 6 7 8 9 10 11 12 13 14 15 16 17 18 19 20 21 22 23 24 25 26 27 28 29 30 31 32 33 34 35 36 37 38 39 40 41 42 43 44 45 46 47 48 49 50
000
FTUS45 KBOU 031126
TAFDEN
TAF
KDEN 031126Z 0312/0418 28007KT P6SM SKC
     FM031500 29008KT P6SM FEW120 SCT180
     FM031800 04007KT P6SM SCT090 BKN140
     FM032100 14010KT P6SM VCSH BKN080 BKN120 PROB30 0323/0403
      VRB20G30KT -TSRA BKN070CB
     FM040400 21010KT P6SM SCT080 BKN140
     FM041000 20008KT P6SM FEW100 SCT150
     FM041600 VRB05KT P6SM SCT090 BKN140=

USA.gov is the U.S. government's official web portal to all federal, state and local government web resources and services.